sensor_id;sensor_type;location;lat;lon;timestamp;temperature;humidity
10566;DHT22;5331;48.148;16.326;2023-04-06T00:00:34;2.00;1.00
10566;DHT22;5331;48.148;16.326;2023-04-06T00:03:01;1.80;1.00
10566;DHT22;5331;48.148;16.326;2023-04-06T00:05:28;1.80;1.00
10566;DHT22;5331;48.148;16.326;2023-04-06T00:10:23;1.50;1.00
10566;DHT22;5331;48.148;16.326;2023-04-06T00:12:52;1.50;1.00
10566;DHT22;5331;48.148;16.326;2023-04-06T00:15:19;1.40;1.00
10566;DHT22;5331;48.148;16.326;2023-04-06T00:17:46;1.40;1.00
10566;DHT22;5331;48.148;16.326;2023-04-06T00:20:13;1.40;1.00
10566;DHT22;5331;48.148;16.326;2023-04-06T00:22:40;1.30;1.00
10566;DHT22;5331;48.148;16.326;2023-04-06T00:25:07;1.30;1.00
10566;DHT22;5331;48.148;16.326;2023-04-06T00:27:35;1.30;1.00
10566;DHT22;5331;48.148;16.326;2023-04-06T00:30:04;1.30;1.00
10566;DHT22;5331;48.148;16.326;2023-04-06T00:32:31;1.20;1.00
10566;DHT22;5331;48.148;16.326;2023-04-06T00:34:58;1.10;1.00
10566;DHT22;5331;48.148;16.326;2023-04-06T00:37:25;1.10;1.00
10566;DHT22;5331;48.148;16.326;2023-04-06T00:39:52;1.00;1.00
10566;DHT22;5331;48.148;16.326;2023-04-06T00:42:21;1.00;1.00
10566;DHT22;5331;48.148;16.326;2023-04-06T00:44:51;0.90;1.00
10566;DHT22;5331;48.148;16.326;2023-04-06T00:47:20;0.90;1.00
10566;DHT22;5331;48.148;16.326;2023-04-06T00:49:47;0.80;1.00
10566;DHT22;5331;48.148;16.326;2023-04-06T00:52:15;0.80;1.00
10566;DHT22;5331;48.148;16.326;2023-04-06T00:54:42;0.70;1.00
10566;DHT22;5331;48.148;16.326;2023-04-06T00:57:09;0.70;1.00
10566;DHT22;5331;48.148;16.326;2023-04-06T00:59:36;0.60;1.00
10566;DHT22;5331;48.148;16.326;2023-04-06T01:02:03;0.60;1.00
10566;DHT22;5331;48.148;16.326;2023-04-06T01:04:32;0.60;1.00
10566;DHT22;5331;48.148;16.326;2023-04-06T01:06:59;0.60;1.00
10566;DHT22;5331;48.148;16.326;2023-04-06T01:09:27;0.50;1.00
10566;DHT22;5331;48.148;16.326;2023-04-06T01:11:54;0.50;1.00
10566;DHT22;5331;48.148;16.326;2023-04-06T01:14:21;0.50;1.00
10566;DHT22;5331;48.148;16.326;2023-04-06T01:16:48;0.50;1.00
10566;DHT22;5331;48.148;16.326;2023-04-06T01:19:15;0.50;1.00
10566;DHT22;5331;48.148;16.326;2023-04-06T01:21:44;0.50;1.00
10566;DHT22;5331;48.148;16.326;2023-04-06T01:24:12;0.50;1.00
10566;DHT22;5331;48.148;16.326;2023-04-06T01:26:40;0.50;1.00
10566;DHT22;5331;48.148;16.326;2023-04-06T01:29:07;0.50;1.00
10566;DHT22;5331;48.148;16.326;2023-04-06T01:31:34;0.50;1.00
10566;DHT22;5331;48.148;16.326;2023-04-06T01:34:01;0.40;1.00
10566;DHT22;5331;48.148;16.326;2023-04-06T01:36:28;0.40;1.00
10566;DHT22;5331;48.148;16.326;2023-04-06T01:38:55;0.40;1.00
10566;DHT22;5331;48.148;16.326;2023-04-06T01:41:23;0.40;1.00
10566;DHT22;5331;48.148;16.326;2023-04-06T01:43:50;0.40;1.00
10566;DHT22;5331;48.148;16.326;2023-04-06T01:46:19;0.30;1.00
10566;DHT22;5331;48.148;16.326;2023-04-06T01:48:46;0.30;1.00
10566;DHT22;5331;48.148;16.326;2023-04-06T01:51:13;0.40;1.00
10566;DHT22;5331;48.148;16.326;2023-04-06T01:53:40;0.40;1.00
10566;DHT22;5331;48.148;16.326;2023-04-06T01:56:07;0.30;1.00
10566;DHT22;5331;48.148;16.326;2023-04-06T01:58:35;0.30;1.00
10566;DHT22;5331;48.148;16.326;2023-04-06T02:01:02;0.30;1.00
10566;DHT22;5331;48.148;16.326;2023-04-06T02:03:29;0.30;1.00
10566;DHT22;5331;48.148;16.326;2023-04-06T02:05:57;0.30;1.00
10566;DHT22;5331;48.148;16.326;2023-04-06T02:08:23;0.20;1.00
10566;DHT22;5331;48.148;16.326;2023-04-06T02:10:50;0.20;1.00
10566;DHT22;5331;48.148;16.326;2023-04-06T02:13:17;0.20;1.00
10566;DHT22;5331;48.148;16.326;2023-04-06T02:15:45;0.20;1.00
10566;DHT22;5331;48.148;16.326;2023-04-06T02:18:12;0.20;1.00
10566;DHT22;5331;48.148;16.326;2023-04-06T02:20:39;0.20;1.00
10566;DHT22;5331;48.148;16.326;2023-04-06T02:23:06;0.20;1.00
10566;DHT22;5331;48.148;16.326;2023-04-06T02:25:33;0.10;1.00
10566;DHT22;5331;48.148;16.326;2023-04-06T02:28:00;0.10;1.00
10566;DHT22;5331;48.148;16.326;2023-04-06T02:30:27;0.10;1.00
10566;DHT22;5331;48.148;16.326;2023-04-06T02:32:55;0.00;1.00
10566;DHT22;5331;48.148;16.326;2023-04-06T02:35:24;0.00;1.00
10566;DHT22;5331;48.148;16.326;2023-04-06T02:37:51;0.00;1.00
10566;DHT22;5331;48.148;16.326;2023-04-06T02:40:18;0.00;1.00
10566;DHT22;5331;48.148;16.326;2023-04-06T02:42:45;-0.10;1.00
10566;DHT22;5331;48.148;16.326;2023-04-06T02:45:12;-0.10;1.00
10566;DHT22;5331;48.148;16.326;2023-04-06T02:47:38;-0.10;1.00
10566;DHT22;5331;48.148;16.326;2023-04-06T02:50:07;-0.10;1.00
10566;DHT22;5331;48.148;16.326;2023-04-06T02:52:34;-0.10;1.00
10566;DHT22;5331;48.148;16.326;2023-04-06T02:55:01;-0.20;1.00
10566;DHT22;5331;48.148;16.326;2023-04-06T02:57:28;-0.10;1.00
10566;DHT22;5331;48.148;16.326;2023-04-06T02:59:55;-0.20;1.00
10566;DHT22;5331;48.148;16.326;2023-04-06T03:02:22;-0.30;1.00
10566;DHT22;5331;48.148;16.326;2023-04-06T03:04:49;-0.30;1.00
10566;DHT22;5331;48.148;16.326;2023-04-06T03:07:17;-0.30;1.00
10566;DHT22;5331;48.148;16.326;2023-04-06T03:09:44;-0.40;1.00
10566;DHT22;5331;48.148;16.326;2023-04-06T03:12:11;-0.50;1.00
10566;DHT22;5331;48.148;16.326;2023-04-06T03:14:38;-0.50;1.00
10566;DHT22;5331;48.148;16.326;2023-04-06T03:17:05;-0.60;1.00
10566;DHT22;5331;48.148;16.326;2023-04-06T03:19:32;-0.60;1.00
10566;DHT22;5331;48.148;16.326;2023-04-06T03:21:59;-0.60;1.00
10566;DHT22;5331;48.148;16.326;2023-04-06T03:24:27;-0.60;1.00
10566;DHT22;5331;48.148;16.326;2023-04-06T03:26:54;-0.60;1.00
10566;DHT22;5331;48.148;16.326;2023-04-06T03:29:22;-0.60;1.00
10566;DHT22;5331;48.148;16.326;2023-04-06T03:31:48;-0.60;1.00
10566;DHT22;5331;48.148;16.326;2023-04-06T03:34:15;-0.60;1.00
10566;DHT22;5331;48.148;16.326;2023-04-06T03:36:42;-0.70;1.00
10566;DHT22;5331;48.148;16.326;2023-04-06T03:39:09;-0.60;1.00
10566;DHT22;5331;48.148;16.326;2023-04-06T03:41:38;-0.60;1.00
10566;DHT22;5331;48.148;16.326;2023-04-06T03:44:05;-0.40;1.00
10566;DHT22;5331;48.148;16.326;2023-04-06T03:46:32;-0.40;1.00
10566;DHT22;5331;48.148;16.326;2023-04-06T03:48:59;-0.30;1.00
10566;DHT22;5331;48.148;16.326;2023-04-06T03:51:26;-0.40;1.00
10566;DHT22;5331;48.148;16.326;2023-04-06T03:53:53;-0.40;1.00
10566;DHT22;5331;48.148;16.326;2023-04-06T03:56:20;-0.40;1.00
10566;DHT22;5331;48.148;16.326;2023-04-06T03:58:48;-0.40;1.00
10566;DHT22;5331;48.148;16.326;2023-04-06T04:01:16;-0.50;1.00
10566;DHT22;5331;48.148;16.326;2023-04-06T04:03:43;-0.50;1.00
10566;DHT22;5331;48.148;16.326;2023-04-06T04:06:10;-0.50;1.00
10566;DHT22;5331;48.148;16.326;2023-04-06T04:08:37;-0.60;1.00
10566;DHT22;5331;48.148;16.326;2023-04-06T04:11:04;-0.70;1.00
10566;DHT22;5331;48.148;16.326;2023-04-06T04:13:30;-0.60;1.00
10566;DHT22;5331;48.148;16.326;2023-04-06T04:15:59;-0.60;1.00
10566;DHT22;5331;48.148;16.326;2023-04-06T04:18:26;-0.60;1.00
10566;DHT22;5331;48.148;16.326;2023-04-06T04:20:52;-0.60;1.00
10566;DHT22;5331;48.148;16.326;2023-04-06T04:23:19;-0.70;1.00
10566;DHT22;5331;48.148;16.326;2023-04-06T04:25:46;-0.70;1.00
10566;DHT22;5331;48.148;16.326;2023-04-06T04:28:13;-0.70;1.00
10566;DHT22;5331;48.148;16.326;2023-04-06T04:30:40;-0.60;1.00
10566;DHT22;5331;48.148;16.326;2023-04-06T04:33:08;-0.60;1.00
10566;DHT22;5331;48.148;16.326;2023-04-06T04:35:35;-0.60;1.00
10566;DHT22;5331;48.148;16.326;2023-04-06T04:38:02;-0.50;1.00
10566;DHT22;5331;48.148;16.326;2023-04-06T04:40:29;-0.50;1.00
10566;DHT22;5331;48.148;16.326;2023-04-06T04:42:56;-0.40;1.00
10566;DHT22;5331;48.148;16.326;2023-04-06T04:45:23;-0.30;1.00
10566;DHT22;5331;48.148;16.326;2023-04-06T04:47:50;-0.20;1.00
10566;DHT22;5331;48.148;16.326;2023-04-06T04:50:18;-0.20;1.00
10566;DHT22;5331;48.148;16.326;2023-04-06T04:52:45;-0.10;1.00
10566;DHT22;5331;48.148;16.326;2023-04-06T04:55:12;0.00;1.00
10566;DHT22;5331;48.148;16.326;2023-04-06T04:57:39;0.10;1.00
10566;DHT22;5331;48.148;16.326;2023-04-06T05:00:07;0.20;1.00
10566;DHT22;5331;48.148;16.326;2023-04-06T05:02:34;0.30;1.00
10566;DHT22;5331;48.148;16.326;2023-04-06T05:05:01;0.40;1.00
10566;DHT22;5331;48.148;16.326;2023-04-06T05:07:29;0.50;1.00
10566;DHT22;5331;48.148;16.326;2023-04-06T05:09:56;0.50;1.00
10566;DHT22;5331;48.148;16.326;2023-04-06T05:12:23;0.60;1.00
10566;DHT22;5331;48.148;16.326;2023-04-06T05:14:50;0.70;1.00
10566;DHT22;5331;48.148;16.326;2023-04-06T05:17:17;0.80;1.00
10566;DHT22;5331;48.148;16.326;2023-04-06T05:19:44;0.80;1.00
10566;DHT22;5331;48.148;16.326;2023-04-06T05:22:11;0.90;1.00
10566;DHT22;5331;48.148;16.326;2023-04-06T05:24:41;1.00;1.00
10566;DHT22;5331;48.148;16.326;2023-04-06T05:27:08;1.10;1.00
10566;DHT22;5331;48.148;16.326;2023-04-06T05:29:35;1.10;1.00
10566;DHT22;5331;48.148;16.326;2023-04-06T05:32:02;1.20;1.00
10566;DHT22;5331;48.148;16.326;2023-04-06T05:34:29;1.30;1.00
10566;DHT22;5331;48.148;16.326;2023-04-06T05:36:56;1.40;1.00
10566;DHT22;5331;48.148;16.326;2023-04-06T05:39:23;1.50;1.00
10566;DHT22;5331;48.148;16.326;2023-04-06T05:41:51;1.50;1.00
10566;DHT22;5331;48.148;16.326;2023-04-06T05:44:18;1.70;1.00
10566;DHT22;5331;48.148;16.326;2023-04-06T05:46:44;1.70;1.00
10566;DHT22;5331;48.148;16.326;2023-04-06T05:49:11;1.80;1.00
10566;DHT22;5331;48.148;16.326;2023-04-06T05:51:38;1.90;1.00
10566;DHT22;5331;48.148;16.326;2023-04-06T05:54:05;2.00;1.00
10566;DHT22;5331;48.148;16.326;2023-04-06T05:56:32;2.20;1.00
10566;DHT22;5331;48.148;16.326;2023-04-06T05:59:00;2.30;1.00
10566;DHT22;5331;48.148;16.326;2023-04-06T06:01:27;2.60;1.00
10566;DHT22;5331;48.148;16.326;2023-04-06T06:03:55;3.30;1.00
10566;DHT22;5331;48.148;16.326;2023-04-06T06:06:21;3.90;1.00
10566;DHT22;5331;48.148;16.326;2023-04-06T06:08:48;4.60;1.00
10566;DHT22;5331;48.148;16.326;2023-04-06T06:11:15;5.40;1.00
10566;DHT22;5331;48.148;16.326;2023-04-06T06:13:42;5.90;1.00
10566;DHT22;5331;48.148;16.326;2023-04-06T06:16:10;6.20;1.00
10566;DHT22;5331;48.148;16.326;2023-04-06T06:18:37;6.50;1.00
10566;DHT22;5331;48.148;16.326;2023-04-06T06:21:04;6.70;1.00
10566;DHT22;5331;48.148;16.326;2023-04-06T06:23:31;7.00;1.00
10566;DHT22;5331;48.148;16.326;2023-04-06T06:25:58;7.10;1.00
10566;DHT22;5331;48.148;16.326;2023-04-06T06:28:26;7.20;1.00
10566;DHT22;5331;48.148;16.326;2023-04-06T06:30:53;7.50;1.00
10566;DHT22;5331;48.148;16.326;2023-04-06T06:33:21;8.00;1.00
10566;DHT22;5331;48.148;16.326;2023-04-06T06:35:48;8.10;1.00
10566;DHT22;5331;48.148;16.326;2023-04-06T06:38:16;8.20;1.00
10566;DHT22;5331;48.148;16.326;2023-04-06T06:40:44;8.30;1.00
10566;DHT22;5331;48.148;16.326;2023-04-06T06:43:11;8.50;1.00
10566;DHT22;5331;48.148;16.326;2023-04-06T06:45:38;8.40;1.00
10566;DHT22;5331;48.148;16.326;2023-04-06T06:48:05;8.50;1.00
10566;DHT22;5331;48.148;16.326;2023-04-06T06:50:33;8.50;1.00
10566;DHT22;5331;48.148;16.326;2023-04-06T06:53:01;8.70;1.00
10566;DHT22;5331;48.148;16.326;2023-04-06T06:55:28;8.70;1.00
10566;DHT22;5331;48.148;16.326;2023-04-06T06:57:54;8.60;1.00
10566;DHT22;5331;48.148;16.326;2023-04-06T07:00:22;8.60;1.00
10566;DHT22;5331;48.148;16.326;2023-04-06T07:02:49;8.90;1.00
10566;DHT22;5331;48.148;16.326;2023-04-06T07:05:16;9.10;1.00
10566;DHT22;5331;48.148;16.326;2023-04-06T07:07:44;9.20;1.00
10566;DHT22;5331;48.148;16.326;2023-04-06T07:10:11;9.40;1.00
10566;DHT22;5331;48.148;16.326;2023-04-06T07:12:38;9.30;1.00
10566;DHT22;5331;48.148;16.326;2023-04-06T07:15:06;9.40;1.00
10566;DHT22;5331;48.148;16.326;2023-04-06T07:17:33;9.30;1.00
10566;DHT22;5331;48.148;16.326;2023-04-06T07:20:00;9.30;1.00
10566;DHT22;5331;48.148;16.326;2023-04-06T07:22:27;9.40;1.00
10566;DHT22;5331;48.148;16.326;2023-04-06T07:24:56;9.60;1.00
10566;DHT22;5331;48.148;16.326;2023-04-06T07:27:23;9.50;1.00
10566;DHT22;5331;48.148;16.326;2023-04-06T07:29:50;9.30;1.00
10566;DHT22;5331;48.148;16.326;2023-04-06T07:32:17;9.30;1.00
10566;DHT22;5331;48.148;16.326;2023-04-06T07:34:44;9.50;1.00
10566;DHT22;5331;48.148;16.326;2023-04-06T07:37:12;9.60;1.00
10566;DHT22;5331;48.148;16.326;2023-04-06T07:39:39;9.90;1.00
10566;DHT22;5331;48.148;16.326;2023-04-06T07:42:08;10.30;1.00
10566;DHT22;5331;48.148;16.326;2023-04-06T07:44:35;10.60;1.00
10566;DHT22;5331;48.148;16.326;2023-04-06T07:47:02;10.80;1.00
10566;DHT22;5331;48.148;16.326;2023-04-06T07:49:29;10.40;1.00
10566;DHT22;5331;48.148;16.326;2023-04-06T07:51:57;10.60;1.00
10566;DHT22;5331;48.148;16.326;2023-04-06T07:54:25;11.00;1.00
10566;DHT22;5331;48.148;16.326;2023-04-06T07:56:51;11.30;1.00
10566;DHT22;5331;48.148;16.326;2023-04-06T07:59:20;11.50;1.00
10566;DHT22;5331;48.148;16.326;2023-04-06T08:01:47;11.60;1.00
10566;DHT22;5331;48.148;16.326;2023-04-06T08:04:14;11.80;1.00
10566;DHT22;5331;48.148;16.326;2023-04-06T08:06:41;11.80;1.00
10566;DHT22;5331;48.148;16.326;2023-04-06T08:09:07;11.70;1.00
10566;DHT22;5331;48.148;16.326;2023-04-06T08:11:34;12.00;1.00
10566;DHT22;5331;48.148;16.326;2023-04-06T08:26:29;11.90;1.00
10566;DHT22;5331;48.148;16.326;2023-04-06T08:28:56;11.90;1.00
10566;DHT22;5331;48.148;16.326;2023-04-06T08:31:23;12.20;1.00
10566;DHT22;5331;48.148;16.326;2023-04-06T08:33:51;12.30;1.00
10566;DHT22;5331;48.148;16.326;2023-04-06T08:36:18;12.60;1.00
10566;DHT22;5331;48.148;16.326;2023-04-06T08:38:48;12.60;1.00
10566;DHT22;5331;48.148;16.326;2023-04-06T08:41:16;12.40;1.00
10566;DHT22;5331;48.148;16.326;2023-04-06T08:43:47;12.30;1.00
10566;DHT22;5331;48.148;16.326;2023-04-06T08:46:14;12.30;1.00
10566;DHT22;5331;48.148;16.326;2023-04-06T08:48:42;12.00;1.00
10566;DHT22;5331;48.148;16.326;2023-04-06T08:51:09;12.10;1.00
10566;DHT22;5331;48.148;16.326;2023-04-06T08:53:37;12.20;1.00
10566;DHT22;5331;48.148;16.326;2023-04-06T08:56:05;12.10;1.00
10566;DHT22;5331;48.148;16.326;2023-04-06T08:58:35;12.30;1.00
10566;DHT22;5331;48.148;16.326;2023-04-06T09:01:07;12.60;1.00
10566;DHT22;5331;48.148;16.326;2023-04-06T09:03:37;12.80;1.00
10566;DHT22;5331;48.148;16.326;2023-04-06T09:06:05;12.90;1.00
10566;DHT22;5331;48.148;16.326;2023-04-06T09:08:32;12.80;1.00
10566;DHT22;5331;48.148;16.326;2023-04-06T09:11:00;12.70;1.00
10566;DHT22;5331;48.148;16.326;2023-04-06T09:13:27;12.50;1.00
10566;DHT22;5331;48.148;16.326;2023-04-06T09:16:03;12.50;1.00
10566;DHT22;5331;48.148;16.326;2023-04-06T09:18:32;12.50;1.00
10566;DHT22;5331;48.148;16.326;2023-04-06T09:21:01;12.40;1.00
10566;DHT22;5331;48.148;16.326;2023-04-06T09:23:28;12.40;1.00
10566;DHT22;5331;48.148;16.326;2023-04-06T09:26:08;12.50;1.00
10566;DHT22;5331;48.148;16.326;2023-04-06T09:28:47;12.60;1.00
10566;DHT22;5331;48.148;16.326;2023-04-06T09:31:16;12.60;1.00
10566;DHT22;5331;48.148;16.326;2023-04-06T09:33:47;12.50;1.00
10566;DHT22;5331;48.148;16.326;2023-04-06T09:36:14;12.60;1.00
10566;DHT22;5331;48.148;16.326;2023-04-06T09:38:53;12.50;1.00
10566;DHT22;5331;48.148;16.326;2023-04-06T09:41:22;12.40;1.00
10566;DHT22;5331;48.148;16.326;2023-04-06T09:43:50;12.20;1.00
10566;DHT22;5331;48.148;16.326;2023-04-06T09:46:21;12.30;1.00
10566;DHT22;5331;48.148;16.326;2023-04-06T09:48:49;12.30;1.00
10566;DHT22;5331;48.148;16.326;2023-04-06T09:51:18;12.00;1.00
10566;DHT22;5331;48.148;16.326;2023-04-06T09:53:51;12.00;1.00
10566;DHT22;5331;48.148;16.326;2023-04-06T09:56:22;12.20;1.00
10566;DHT22;5331;48.148;16.326;2023-04-06T09:58:53;12.40;1.00
10566;DHT22;5331;48.148;16.326;2023-04-06T10:01:28;12.50;1.00
10566;DHT22;5331;48.148;16.326;2023-04-06T10:04:02;12.50;1.00
10566;DHT22;5331;48.148;16.326;2023-04-06T10:06:35;12.60;1.00
10566;DHT22;5331;48.148;16.326;2023-04-06T10:09:04;12.60;1.00
10566;DHT22;5331;48.148;16.326;2023-04-06T10:11:34;12.90;1.00
10566;DHT22;5331;48.148;16.326;2023-04-06T10:14:01;12.80;1.00
10566;DHT22;5331;48.148;16.326;2023-04-06T10:16:29;13.00;1.00
10566;DHT22;5331;48.148;16.326;2023-04-06T10:19:06;13.10;1.00
10566;DHT22;5331;48.148;16.326;2023-04-06T10:21:38;13.00;1.00
10566;DHT22;5331;48.148;16.326;2023-04-06T10:24:09;13.00;1.00
10566;DHT22;5331;48.148;16.326;2023-04-06T10:26:38;12.70;1.00
10566;DHT22;5331;48.148;16.326;2023-04-06T10:29:05;12.60;1.00
10566;DHT22;5331;48.148;16.326;2023-04-06T10:31:40;12.50;1.00
10566;DHT22;5331;48.148;16.326;2023-04-06T10:34:08;11.60;1.00
10566;DHT22;5331;48.148;16.326;2023-04-06T10:36:36;11.60;1.00
10566;DHT22;5331;48.148;16.326;2023-04-06T10:39:05;11.50;1.00
10566;DHT22;5331;48.148;16.326;2023-04-06T10:41:33;11.70;1.00
10566;DHT22;5331;48.148;16.326;2023-04-06T10:44:01;11.40;1.00
10566;DHT22;5331;48.148;16.326;2023-04-06T10:46:29;11.20;1.00
10566;DHT22;5331;48.148;16.326;2023-04-06T10:48:58;11.30;1.00
10566;DHT22;5331;48.148;16.326;2023-04-06T10:51:27;11.80;1.00
10566;DHT22;5331;48.148;16.326;2023-04-06T10:53:55;12.00;1.00
10566;DHT22;5331;48.148;16.326;2023-04-06T10:56:23;12.20;1.00
10566;DHT22;5331;48.148;16.326;2023-04-06T10:58:55;12.20;1.00
10566;DHT22;5331;48.148;16.326;2023-04-06T11:01:23;12.60;1.00
10566;DHT22;5331;48.148;16.326;2023-04-06T11:03:53;12.50;1.00
10566;DHT22;5331;48.148;16.326;2023-04-06T11:06:22;12.30;1.00
10566;DHT22;5331;48.148;16.326;2023-04-06T11:08:50;12.00;1.00
10566;DHT22;5331;48.148;16.326;2023-04-06T11:11:18;11.90;1.00
10566;DHT22;5331;48.148;16.326;2023-04-06T11:13:47;11.40;1.00
10566;DHT22;5331;48.148;16.326;2023-04-06T11:16:16;11.50;1.00
10566;DHT22;5331;48.148;16.326;2023-04-06T11:18:54;11.10;1.00
10566;DHT22;5331;48.148;16.326;2023-04-06T11:21:34;11.20;1.00
10566;DHT22;5331;48.148;16.326;2023-04-06T11:24:08;11.50;1.00
10566;DHT22;5331;48.148;16.326;2023-04-06T11:26:40;11.70;1.00
10566;DHT22;5331;48.148;16.326;2023-04-06T11:29:07;11.80;1.00
10566;DHT22;5331;48.148;16.326;2023-04-06T11:31:39;11.80;1.00
10566;DHT22;5331;48.148;16.326;2023-04-06T11:34:12;11.90;1.00
10566;DHT22;5331;48.148;16.326;2023-04-06T11:36:42;12.10;1.00
10566;DHT22;5331;48.148;16.326;2023-04-06T11:39:10;12.40;1.00
10566;DHT22;5331;48.148;16.326;2023-04-06T11:41:37;12.50;1.00
10566;DHT22;5331;48.148;16.326;2023-04-06T11:44:05;12.50;1.00
10566;DHT22;5331;48.148;16.326;2023-04-06T11:46:32;12.60;1.00
10566;DHT22;5331;48.148;16.326;2023-04-06T11:49:00;12.50;1.00
10566;DHT22;5331;48.148;16.326;2023-04-06T11:51:28;12.60;1.00
10566;DHT22;5331;48.148;16.326;2023-04-06T11:53:56;12.60;1.00
10566;DHT22;5331;48.148;16.326;2023-04-06T11:56:27;12.60;1.00
10566;DHT22;5331;48.148;16.326;2023-04-06T11:58:55;12.50;1.00
10566;DHT22;5331;48.148;16.326;2023-04-06T12:01:23;12.70;1.00
10566;DHT22;5331;48.148;16.326;2023-04-06T12:03:51;12.80;1.00
10566;DHT22;5331;48.148;16.326;2023-04-06T12:06:18;13.00;1.00
10566;DHT22;5331;48.148;16.326;2023-04-06T12:08:45;13.00;1.00
10566;DHT22;5331;48.148;16.326;2023-04-06T12:11:13;13.00;1.00
10566;DHT22;5331;48.148;16.326;2023-04-06T12:13:40;13.10;1.00
10566;DHT22;5331;48.148;16.326;2023-04-06T12:16:07;13.00;1.00
10566;DHT22;5331;48.148;16.326;2023-04-06T12:18:34;13.00;1.00
10566;DHT22;5331;48.148;16.326;2023-04-06T12:21:01;13.00;1.00
10566;DHT22;5331;48.148;16.326;2023-04-06T12:23:31;13.00;1.00
10566;DHT22;5331;48.148;16.326;2023-04-06T12:25:58;13.10;1.00
10566;DHT22;5331;48.148;16.326;2023-04-06T12:28:26;13.10;1.00
10566;DHT22;5331;48.148;16.326;2023-04-06T12:30:53;13.20;1.00
10566;DHT22;5331;48.148;16.326;2023-04-06T12:33:21;13.10;1.00
10566;DHT22;5331;48.148;16.326;2023-04-06T12:35:48;13.30;1.00
10566;DHT22;5331;48.148;16.326;2023-04-06T12:38:15;13.50;1.00
10566;DHT22;5331;48.148;16.326;2023-04-06T12:40:42;13.50;1.00
10566;DHT22;5331;48.148;16.326;2023-04-06T12:43:09;13.70;1.00
10566;DHT22;5331;48.148;16.326;2023-04-06T12:45:38;13.50;1.00
10566;DHT22;5331;48.148;16.326;2023-04-06T12:48:05;13.20;1.00
10566;DHT22;5331;48.148;16.326;2023-04-06T12:50:32;13.10;1.00
10566;DHT22;5331;48.148;16.326;2023-04-06T12:52:59;13.10;1.00
10566;DHT22;5331;48.148;16.326;2023-04-06T12:55:29;13.20;1.00
10566;DHT22;5331;48.148;16.326;2023-04-06T12:57:56;13.00;1.00
10566;DHT22;5331;48.148;16.326;2023-04-06T13:00:23;12.80;1.00
10566;DHT22;5331;48.148;16.326;2023-04-06T13:02:52;12.80;1.00
10566;DHT22;5331;48.148;16.326;2023-04-06T13:05:19;12.50;1.00
10566;DHT22;5331;48.148;16.326;2023-04-06T13:07:46;12.50;1.00
10566;DHT22;5331;48.148;16.326;2023-04-06T13:10:13;12.30;1.00
10566;DHT22;5331;48.148;16.326;2023-04-06T13:12:40;12.10;1.00
10566;DHT22;5331;48.148;16.326;2023-04-06T13:15:07;11.80;1.00
10566;DHT22;5331;48.148;16.326;2023-04-06T13:17:35;11.60;1.00
10566;DHT22;5331;48.148;16.326;2023-04-06T13:20:03;11.40;1.00
10566;DHT22;5331;48.148;16.326;2023-04-06T13:22:31;11.50;1.00
10566;DHT22;5331;48.148;16.326;2023-04-06T13:24:58;11.70;1.00
10566;DHT22;5331;48.148;16.326;2023-04-06T13:27:25;11.70;1.00
10566;DHT22;5331;48.148;16.326;2023-04-06T13:29:53;11.80;1.00
10566;DHT22;5331;48.148;16.326;2023-04-06T13:32:20;11.80;1.00
10566;DHT22;5331;48.148;16.326;2023-04-06T13:34:47;12.00;1.00
10566;DHT22;5331;48.148;16.326;2023-04-06T13:37:16;12.20;1.00
10566;DHT22;5331;48.148;16.326;2023-04-06T13:39:43;12.30;1.00
10566;DHT22;5331;48.148;16.326;2023-04-06T13:42:09;12.50;1.00
10566;DHT22;5331;48.148;16.326;2023-04-06T13:44:36;12.60;1.00
10566;DHT22;5331;48.148;16.326;2023-04-06T13:47:03;12.60;1.00
10566;DHT22;5331;48.148;16.326;2023-04-06T13:49:31;12.80;1.00
10566;DHT22;5331;48.148;16.326;2023-04-06T13:51:58;12.80;1.00
10566;DHT22;5331;48.148;16.326;2023-04-06T13:54:30;12.60;1.00
10566;DHT22;5331;48.148;16.326;2023-04-06T13:56:57;12.60;1.00
10566;DHT22;5331;48.148;16.326;2023-04-06T13:59:24;12.40;1.00
10566;DHT22;5331;48.148;16.326;2023-04-06T14:01:51;12.40;1.00
10566;DHT22;5331;48.148;16.326;2023-04-06T14:04:18;12.40;1.00
10566;DHT22;5331;48.148;16.326;2023-04-06T14:06:45;12.30;1.00
10566;DHT22;5331;48.148;16.326;2023-04-06T14:09:12;12.20;1.00
10566;DHT22;5331;48.148;16.326;2023-04-06T14:11:40;12.10;1.00
10566;DHT22;5331;48.148;16.326;2023-04-06T14:14:07;11.90;1.00
10566;DHT22;5331;48.148;16.326;2023-04-06T14:16:35;11.90;1.00
10566;DHT22;5331;48.148;16.326;2023-04-06T14:19:02;11.80;1.00
10566;DHT22;5331;48.148;16.326;2023-04-06T14:21:29;11.90;1.00
10566;DHT22;5331;48.148;16.326;2023-04-06T14:23:56;11.80;1.00
10566;DHT22;5331;48.148;16.326;2023-04-06T14:26:23;12.00;1.00
10566;DHT22;5331;48.148;16.326;2023-04-06T14:28:52;12.10;1.00
10566;DHT22;5331;48.148;16.326;2023-04-06T14:31:18;12.30;1.00
10566;DHT22;5331;48.148;16.326;2023-04-06T14:33:45;12.40;1.00
10566;DHT22;5331;48.148;16.326;2023-04-06T14:36:12;12.40;1.00
10566;DHT22;5331;48.148;16.326;2023-04-06T14:38:40;12.40;1.00
10566;DHT22;5331;48.148;16.326;2023-04-06T14:41:08;12.30;1.00
10566;DHT22;5331;48.148;16.326;2023-04-06T14:43:36;12.40;1.00
10566;DHT22;5331;48.148;16.326;2023-04-06T14:46:04;12.10;1.00
10566;DHT22;5331;48.148;16.326;2023-04-06T14:48:34;12.00;1.00
10566;DHT22;5331;48.148;16.326;2023-04-06T14:51:01;12.10;1.00
10566;DHT22;5331;48.148;16.326;2023-04-06T14:53:29;12.10;1.00
10566;DHT22;5331;48.148;16.326;2023-04-06T14:55:56;12.10;1.00
10566;DHT22;5331;48.148;16.326;2023-04-06T14:58:25;12.00;1.00
10566;DHT22;5331;48.148;16.326;2023-04-06T15:00:55;12.10;1.00
10566;DHT22;5331;48.148;16.326;2023-04-06T15:03:23;12.10;1.00
10566;DHT22;5331;48.148;16.326;2023-04-06T15:05:51;12.00;1.00
10566;DHT22;5331;48.148;16.326;2023-04-06T15:08:18;11.90;1.00
10566;DHT22;5331;48.148;16.326;2023-04-06T15:10:46;11.90;1.00
10566;DHT22;5331;48.148;16.326;2023-04-06T15:13:13;12.00;1.00
10566;DHT22;5331;48.148;16.326;2023-04-06T15:15:40;11.80;1.00
10566;DHT22;5331;48.148;16.326;2023-04-06T15:18:07;11.70;1.00
10566;DHT22;5331;48.148;16.326;2023-04-06T15:20:36;11.60;1.00
10566;DHT22;5331;48.148;16.326;2023-04-06T15:23:03;11.70;1.00
10566;DHT22;5331;48.148;16.326;2023-04-06T15:25:30;11.90;1.00
10566;DHT22;5331;48.148;16.326;2023-04-06T15:27:58;11.90;1.00
10566;DHT22;5331;48.148;16.326;2023-04-06T15:30:28;11.90;1.00
10566;DHT22;5331;48.148;16.326;2023-04-06T15:32:57;11.90;1.00
10566;DHT22;5331;48.148;16.326;2023-04-06T15:35:26;12.00;1.00
10566;DHT22;5331;48.148;16.326;2023-04-06T15:37:55;11.90;1.00
10566;DHT22;5331;48.148;16.326;2023-04-06T15:40:22;12.00;1.00
10566;DHT22;5331;48.148;16.326;2023-04-06T15:42:50;11.90;1.00
10566;DHT22;5331;48.148;16.326;2023-04-06T15:45:17;12.00;1.00
10566;DHT22;5331;48.148;16.326;2023-04-06T15:47:45;11.90;1.00
10566;DHT22;5331;48.148;16.326;2023-04-06T15:50:12;11.80;1.00
10566;DHT22;5331;48.148;16.326;2023-04-06T15:52:40;11.70;1.00
10566;DHT22;5331;48.148;16.326;2023-04-06T15:55:08;11.90;1.00
10566;DHT22;5331;48.148;16.326;2023-04-06T15:57:35;11.80;1.00
10566;DHT22;5331;48.148;16.326;2023-04-06T16:00:04;11.80;1.00
10566;DHT22;5331;48.148;16.326;2023-04-06T16:02:32;11.80;1.00
10566;DHT22;5331;48.148;16.326;2023-04-06T16:04:59;11.80;1.00
10566;DHT22;5331;48.148;16.326;2023-04-06T16:07:27;11.50;1.00
10566;DHT22;5331;48.148;16.326;2023-04-06T16:09:54;11.40;1.00